Time;durP1;ratioP1;P1;durP2;ratioP2;P2;SDS_P1;SDS_P2;PMS_P1;PMS_P2;Temp;Humidity;BMP_temperature;BMP_pressure;BME280_temperature;BME280_humidity;BME280_pressure;Samples;Min_cycle;Max_cycle;Signal;HPM_P1;HPM_P2
2021/12/23 00:00:29;;;;;;;13.27;7.80;;;-3.60;96.30;;;;;;4885511;29;20178;-79
2021/12/23 00:02:55;;;;;;;14.63;7.83;;;-3.50;96.30;;;;;;4885919;29;20933;-78
2021/12/23 00:05:20;;;;;;;13.50;8.30;;;-3.60;96.30;;;;;;4884778;29;20177;-79
2021/12/23 00:07:46;;;;;;;14.13;7.63;;;-3.60;96.30;;;;;;4880790;29;20664;-78
2021/12/23 00:10:11;;;;;;;10.97;6.70;;;-3.60;96.30;;;;;;4881112;29;20185;-79
2021/12/23 00:12:41;;;;;;;9.40;4.67;;;-3.60;96.30;;;;;;4879738;29;20264;-79
2021/12/23 00:15:16;;;;;;;10.67;7.30;;;-3.50;96.30;;;;;;4879669;29;20178;-79
2021/12/23 00:17:55;;;;;;;17.83;7.13;;;-3.50;96.30;;;;;;4879551;29;21162;-79
2021/12/23 00:25:44;;;;;;;12.40;7.93;;;-3.60;96.30;;;;;;4880865;29;20405;-79
2021/12/23 00:28:10;;;;;;;14.23;7.50;;;-3.60;96.30;;;;;;4879513;29;20790;-79
2021/12/23 00:30:35;;;;;;;19.97;7.60;;;-3.60;96.30;;;;;;4880059;29;20189;-78
2021/12/23 00:33:01;;;;;;;9.97;5.93;;;-3.70;96.30;;;;;;4879553;29;20188;-79
2021/12/23 00:35:26;;;;;;;15.37;7.07;;;-3.70;96.30;;;;;;4880662;29;20189;-78
2021/12/23 00:37:59;;;;;;;10.80;6.90;;;-3.70;96.30;;;;;;4879181;29;20221;-79
2021/12/23 00:40:25;;;;;;;10.00;7.17;;;-3.70;96.30;;;;;;4880613;29;20165;-79
2021/12/23 00:42:50;;;;;;;10.80;7.10;;;-3.70;96.30;;;;;;4880036;29;20410;-78
2021/12/23 00:45:16;;;;;;;14.27;6.87;;;-3.80;96.30;;;;;;4880511;29;20869;-79
2021/12/23 00:47:41;;;;;;;17.20;7.70;;;-3.90;96.30;;;;;;4880237;29;20186;-79
2021/12/23 00:50:07;;;;;;;12.93;6.90;;;-3.90;96.30;;;;;;4879195;29;20190;-79
2021/12/23 00:52:34;;;;;;;9.40;7.60;;;-3.90;96.30;;;;;;4879187;29;20205;-79
2021/12/23 00:55:00;;;;;;;10.70;7.03;;;-3.90;96.30;;;;;;4879914;29;20422;-79
2021/12/23 00:57:28;;;;;;;11.13;7.27;;;-3.90;96.30;;;;;;4879908;29;20871;-79
2021/12/23 00:59:55;;;;;;;10.30;5.93;;;-3.90;96.30;;;;;;4881166;29;20165;-79
2021/12/23 05:00:34;;;;;;;12.23;6.57;;;-3.50;96.30;;;;;;5766325;23;20486;-78
2021/12/23 05:02:59;;;;;;;13.03;5.80;;;-3.50;96.30;;;;;;4882620;29;20417;-78
2021/12/23 05:05:25;;;;;;;12.23;6.00;;;-3.50;96.30;;;;;;4882289;29;20427;-77
2021/12/23 05:07:51;;;;;;;8.20;5.70;;;-3.50;96.30;;;;;;4882359;29;20276;-77
2021/12/23 05:10:18;;;;;;;9.20;5.57;;;-3.50;96.30;;;;;;4881308;29;20185;-77
2021/12/23 05:12:45;;;;;;;7.90;5.70;;;-3.50;96.30;;;;;;4881419;29;20668;-77
2021/12/23 05:15:16;;;;;;;14.97;6.10;;;-3.40;96.30;;;;;;4882201;29;20414;-78
2021/12/23 05:17:43;;;;;;;11.10;6.00;;;-3.40;96.30;;;;;;4878079;29;20469;-79
2021/12/23 05:20:11;;;;;;;8.10;5.50;;;-3.40;96.30;;;;;;4880065;29;20871;-79
2021/12/23 06:04:03;;;;;;;9.23;5.70;;;-3.20;96.30;;;;;;5427776;23;20564;-78
2021/12/23 06:06:28;;;;;;;9.67;5.80;;;-3.20;96.30;;;;;;4878603;29;20888;-78
2021/12/23 06:08:54;;;;;;;7.50;5.30;;;-3.10;96.30;;;;;;4879340;29;20181;-78
2021/12/23 06:11:19;;;;;;;8.93;6.00;;;-3.10;96.30;;;;;;4879953;29;20258;-78
2021/12/23 06:13:45;;;;;;;10.10;5.27;;;-3.10;96.30;;;;;;4878449;29;20189;-78
2021/12/23 06:16:10;;;;;;;8.27;5.90;;;-3.10;96.30;;;;;;4878785;29;20619;-79
2021/12/23 06:18:36;;;;;;;9.20;5.20;;;-3.00;96.30;;;;;;4881652;29;20305;-79
2021/12/23 06:47:11;;;;;;;11.20;6.13;;;-2.90;96.30;;;;;;4876980;29;20841;-78
2021/12/23 06:49:36;;;;;;;12.50;7.20;;;-2.80;96.30;;;;;;4881032;29;20412;-77
2021/12/23 06:52:02;;;;;;;11.70;7.10;;;-2.80;96.30;;;;;;4880529;29;20197;-78
2021/12/23 06:54:28;;;;;;;7.50;4.70;;;-2.80;96.30;;;;;;4881335;29;20265;-78
2021/12/23 06:56:53;;;;;;;24.13;10.23;;;-2.80;96.30;;;;;;4879512;29;20181;-78
2021/12/23 06:59:19;;;;;;;16.00;5.97;;;-2.70;96.30;;;;;;4879260;29;20205;-79
2021/12/23 07:17:17;;;;;;;15.70;8.07;;;-2.50;96.30;;;;;;4968192;23;20864;-79
2021/12/23 07:19:43;;;;;;;13.10;7.30;;;-2.60;96.30;;;;;;4879394;29;20419;-79
2021/12/23 07:22:08;;;;;;;17.33;11.10;;;-2.60;96.30;;;;;;4876799;29;20438;-78
2021/12/23 07:24:34;;;;;;;10.17;7.00;;;-2.60;96.30;;;;;;4878050;29;20186;-78
2021/12/23 07:27:00;;;;;;;12.80;7.50;;;-2.60;96.30;;;;;;4876475;29;20273;-78
2021/12/23 07:29:25;;;;;;;9.13;6.50;;;-2.60;96.30;;;;;;4880021;29;20658;-78
2021/12/23 07:31:51;;;;;;;10.83;6.23;;;-2.60;96.30;;;;;;4874733;29;20469;-78
2021/12/23 07:34:16;;;;;;;10.20;5.77;;;-2.50;96.30;;;;;;4891598;29;20192;-78
2021/12/23 07:36:42;;;;;;;13.37;6.30;;;-2.50;96.30;;;;;;4887496;29;20186;-79
2021/12/23 07:39:08;;;;;;;9.83;6.13;;;-2.50;96.30;;;;;;4887885;29;20205;-78
2021/12/23 07:41:34;;;;;;;20.67;13.00;;;-2.50;96.30;;;;;;4900651;29;20449;-78
2021/12/23 07:44:06;;;;;;;15.77;7.60;;;-2.40;96.30;;;;;;4898964;29;20473;-77
2021/12/23 07:46:34;;;;;;;19.97;11.30;;;-2.40;96.30;;;;;;4872810;29;20187;-76
2021/12/23 07:49:00;;;;;;;42.13;21.83;;;-2.40;96.30;;;;;;4888591;29;20433;-77
2021/12/23 07:51:26;;;;;;;13.23;7.83;;;-2.40;96.30;;;;;;4900053;29;20770;-77
2021/12/23 07:53:53;;;;;;;12.67;7.10;;;-2.40;96.30;;;;;;4898628;29;20283;-77
2021/12/23 07:56:22;;;;;;;14.67;8.00;;;-2.30;96.30;;;;;;4899352;29;20421;-77
2021/12/23 07:58:47;;;;;;;13.17;8.70;;;-2.20;96.30;;;;;;4899602;29;20828;-77
2021/12/23 08:01:13;;;;;;;15.00;8.73;;;-2.20;96.30;;;;;;4883027;29;20720;-77
2021/12/23 08:03:38;;;;;;;18.43;11.33;;;-2.20;96.30;;;;;;4880884;29;20186;-76
2021/12/23 08:06:04;;;;;;;17.67;9.13;;;-2.20;96.30;;;;;;4887919;29;20189;-77
2021/12/23 08:08:30;;;;;;;26.57;16.57;;;-2.20;96.30;;;;;;4885905;29;20186;-77
2021/12/23 08:10:55;;;;;;;16.30;9.00;;;-2.20;96.30;;;;;;4880947;29;20690;-77
2021/12/23 08:13:21;;;;;;;18.53;10.83;;;-2.10;96.30;;;;;;4881306;29;20181;-77
2021/12/23 08:15:46;;;;;;;30.73;13.47;;;-2.10;96.30;;;;;;4885185;29;20207;-77
2021/12/23 08:18:12;;;;;;;15.30;9.23;;;-2.10;96.30;;;;;;4887668;29;20212;-78
2021/12/23 08:20:39;;;;;;;11.90;7.60;;;-2.10;96.30;;;;;;4886095;29;20205;-76
2021/12/23 08:23:05;;;;;;;14.40;7.90;;;-2.10;96.30;;;;;;4886463;29;20426;-78
2021/12/23 08:25:30;;;;;;;15.73;8.33;;;-2.10;96.30;;;;;;4882045;29;20429;-77
2021/12/23 08:27:56;;;;;;;14.00;8.23;;;-2.10;96.30;;;;;;4883169;29;20253;-77
2021/12/23 08:30:22;;;;;;;13.20;6.77;;;-2.10;96.30;;;;;;4880187;29;20561;-76
2021/12/23 08:32:49;;;;;;;11.13;6.70;;;-2.00;96.30;;;;;;4881865;29;20185;-75
2021/12/23 08:35:16;;;;;;;15.40;9.20;;;-1.90;96.30;;;;;;4879471;29;20430;-77
2021/12/23 08:37:45;;;;;;;9.83;6.90;;;-2.00;96.30;;;;;;4890947;29;20458;-78
2021/12/23 08:40:13;;;;;;;12.67;7.70;;;-2.10;96.30;;;;;;4888156;29;21049;-76
2021/12/23 08:42:39;;;;;;;12.70;7.40;;;-2.10;96.30;;;;;;4878549;29;20490;-76
2021/12/23 08:45:07;;;;;;;16.60;9.50;;;-2.10;96.30;;;;;;4878503;29;20944;-76
2021/12/23 08:47:33;;;;;;;14.90;8.70;;;-2.00;96.30;;;;;;4880031;29;20178;-76
2021/12/23 08:49:58;;;;;;;13.93;8.30;;;-1.90;96.30;;;;;;4880488;29;20949;-76
2021/12/23 08:52:24;;;;;;;14.13;8.87;;;-2.00;96.30;;;;;;4880686;29;20511;-76
2021/12/23 08:54:49;;;;;;;17.10;8.87;;;-1.90;96.30;;;;;;4897063;29;20579;-77
2021/12/23 08:57:15;;;;;;;16.47;9.10;;;-1.90;96.30;;;;;;4898845;29;20181;-76
2021/12/23 08:59:41;;;;;;;14.83;7.40;;;-1.90;96.30;;;;;;4899137;29;20671;-76
2021/12/23 09:02:07;;;;;;;21.23;9.70;;;-1.80;96.30;;;;;;4898093;29;20205;-77
2021/12/23 09:04:33;;;;;;;14.90;8.67;;;-1.80;96.30;;;;;;4899094;29;20428;-77
2021/12/23 09:06:59;;;;;;;19.90;8.73;;;-1.80;96.30;;;;;;4899151;29;20417;-77
2021/12/23 09:09:25;;;;;;;15.00;9.10;;;-1.80;96.30;;;;;;4900387;29;20956;-77
2021/12/23 09:11:51;;;;;;;17.50;9.53;;;-1.80;96.30;;;;;;4899093;29;20204;-75
2021/12/23 09:14:18;;;;;;;16.30;8.30;;;-1.80;96.30;;;;;;4898926;29;20209;-75
2021/12/23 09:16:43;;;;;;;18.33;9.00;;;-1.80;96.30;;;;;;4889891;29;20481;-75
2021/12/23 09:19:09;;;;;;;16.93;10.30;;;-1.70;96.30;;;;;;4878540;29;20498;-75
2021/12/23 09:21:36;;;;;;;18.43;9.47;;;-1.70;96.30;;;;;;4880026;29;20213;-75
2021/12/23 09:24:03;;;;;;;16.70;9.17;;;-1.70;96.30;;;;;;4883758;29;20417;-75
2021/12/23 09:26:31;;;;;;;18.80;9.20;;;-1.60;96.30;;;;;;4881591;29;20848;-76
2021/12/23 09:29:05;;;;;;;16.53;9.70;;;-1.60;96.30;;;;;;4888213;29;20433;-77
2021/12/23 09:34:15;;;;;;;15.97;9.47;;;-1.60;96.30;;;;;;4898631;29;20420;-76
2021/12/23 09:36:40;;;;;;;17.63;9.97;;;-1.50;96.30;;;;;;4897731;29;20417;-77
2021/12/23 09:39:10;;;;;;;17.80;10.30;;;-1.40;96.30;;;;;;4898119;29;20210;-77
2021/12/23 09:41:39;;;;;;;19.93;11.10;;;-1.40;96.30;;;;;;4898161;29;20664;-78
2021/12/23 09:44:06;;;;;;;19.50;10.17;;;-1.40;96.30;;;;;;4879618;29;20430;-76
2021/12/23 09:46:34;;;;;;;18.27;9.27;;;-1.40;96.30;;;;;;4878913;29;20461;-78
2021/12/23 09:49:00;;;;;;;23.73;11.03;;;-1.30;96.30;;;;;;4879377;29;20414;-77
2021/12/23 09:51:28;;;;;;;23.47;12.80;;;-1.20;96.30;;;;;;4879153;29;20866;-75
2021/12/23 09:53:59;;;;;;;23.20;12.07;;;-1.30;96.30;;;;;;4877533;29;20426;-77
2021/12/23 09:56:26;;;;;;;26.70;12.00;;;-1.40;96.30;;;;;;4879105;29;20441;-77
2021/12/23 09:58:52;;;;;;;20.17;10.33;;;-1.50;96.30;;;;;;4883621;29;20461;-77
2021/12/23 10:01:18;;;;;;;20.97;9.87;;;-1.40;96.30;;;;;;4883163;29;20537;-77
2021/12/23 10:03:44;;;;;;;22.10;12.13;;;-1.30;96.30;;;;;;4883103;29;20177;-77
2021/12/23 10:06:10;;;;;;;20.83;11.00;;;-1.30;96.30;;;;;;4896296;29;20429;-78
2021/12/23 10:08:36;;;;;;;19.57;11.30;;;-1.30;96.30;;;;;;4884995;29;20426;-77
2021/12/23 10:11:15;;;;;;;19.20;10.90;;;-1.40;96.30;;;;;;4885802;29;20979;-78
2021/12/23 10:29:46;;;;;;;17.60;11.53;;;-1.30;96.30;;;;;;4864127;29;20425;-75
2021/12/23 10:31:03;;;;;;;21.93;11.40;;;-1.20;96.30;;;;;;4876013;29;20541;-78
2021/12/23 10:33:49;;;;;;;19.27;9.97;;;-1.20;96.30;;;;;;4892635;29;20537;-77
2021/12/23 10:38:47;;;;;;;18.93;10.10;;;-1.20;96.30;;;;;;4897208;29;21036;-76
2021/12/23 10:41:22;;;;;;;21.53;12.63;;;-1.10;96.30;;;;;;4897600;29;20201;-75
2021/12/23 10:43:52;;;;;;;23.33;12.57;;;-1.10;96.30;;;;;;4898115;29;20796;-76
2021/12/23 10:46:22;;;;;;;24.40;12.20;;;-1.10;96.30;;;;;;4896580;29;20421;-76
2021/12/23 10:52:26;;;;;;;24.17;13.13;;;-1.20;96.30;;;;;;4879771;29;20465;-76
2021/12/23 11:00:20;;;;;;;22.73;13.00;;;-1.20;96.30;;;;;;4878442;29;20498;-76
2021/12/23 11:03:16;;;;;;;28.53;15.23;;;-1.20;96.30;;;;;;4877996;29;20457;-76
2021/12/23 11:05:50;;;;;;;22.20;13.77;;;-1.20;96.30;;;;;;4878289;29;20395;-75
2021/12/23 11:08:24;;;;;;;27.50;15.53;;;-1.20;96.30;;;;;;4876955;29;20426;-75
2021/12/23 11:27:47;;;;;;;27.90;14.70;;;-1.20;96.30;;;;;;4881477;29;20413;-74
2021/12/23 11:36:03;;;;;;;32.77;17.50;;;-1.00;96.30;;;;;;4863056;29;20410;-74
2021/12/23 11:38:40;;;;;;;22.50;12.73;;;-0.70;96.30;;;;;;4877848;29;20514;-74
2021/12/23 11:43:53;;;;;;;22.40;10.60;;;-0.60;96.30;;;;;;4881601;29;20462;-75
2021/12/23 11:46:23;;;;;;;21.40;11.27;;;-0.60;96.30;;;;;;4881176;29;20480;-75
2021/12/23 11:48:54;;;;;;;33.03;16.57;;;-0.70;96.30;;;;;;4881510;29;20766;-75
2021/12/23 11:51:31;;;;;;;32.40;16.93;;;-0.60;96.30;;;;;;4880128;29;20482;-75
2021/12/23 11:53:57;;;;;;;31.13;17.57;;;-0.60;96.30;;;;;;4880233;29;20788;-75
2021/12/23 11:56:24;;;;;;;34.93;16.37;;;-0.50;96.30;;;;;;4880640;29;20430;-75
2021/12/23 11:58:50;;;;;;;35.23;15.53;;;-0.30;96.30;;;;;;4882685;29;20457;-75
2021/12/23 12:01:27;;;;;;;29.93;16.60;;;-0.30;96.30;;;;;;4885343;29;20444;-76
2021/12/23 12:04:02;;;;;;;27.33;15.60;;;-0.20;96.30;;;;;;4882881;29;20177;-76
2021/12/23 12:06:40;;;;;;;33.30;14.43;;;-0.20;96.30;;;;;;4888475;29;20418;-76
2021/12/23 12:09:28;;;;;;;23.40;13.67;;;-0.10;96.30;;;;;;4885821;29;20405;-77
2021/12/23 12:12:06;;;;;;;27.57;13.23;;;0.00;96.30;;;;;;4885028;29;20453;-77
2021/12/23 12:14:36;;;;;;;30.63;13.77;;;-0.10;96.30;;;;;;4883168;29;20510;-76
2021/12/23 12:17:33;;;;;;;26.63;15.33;;;-0.10;96.30;;;;;;4884020;29;20442;-77
2021/12/23 12:20:35;;;;;;;24.83;13.70;;;-0.10;96.30;;;;;;4885645;29;20501;-77
2021/12/23 12:23:07;;;;;;;28.67;14.23;;;-0.10;96.30;;;;;;4883071;29;20410;-78
2021/12/23 12:25:40;;;;;;;28.40;15.07;;;0.10;96.30;;;;;;4886014;29;20421;-77
2021/12/23 12:28:06;;;;;;;26.57;15.53;;;0.10;96.30;;;;;;4880765;29;20422;-78
2021/12/23 12:30:35;;;;;;;24.77;14.20;;;0.30;96.30;;;;;;4887675;29;20414;-78
2021/12/23 12:33:24;;;;;;;28.23;14.57;;;0.20;96.30;;;;;;4884464;29;20173;-77
2021/12/23 12:36:05;;;;;;;31.63;14.57;;;0.30;96.30;;;;;;4882908;29;20429;-77
2021/12/23 12:38:45;;;;;;;29.70;14.37;;;0.30;96.30;;;;;;4884885;29;20472;-78
2021/12/23 12:41:34;;;;;;;27.60;14.10;;;0.30;96.30;;;;;;4883566;29;20430;-77
2021/12/23 12:44:13;;;;;;;31.17;15.10;;;0.30;96.30;;;;;;4887509;29;20506;-78
2021/12/23 12:46:46;;;;;;;27.33;16.60;;;0.20;96.30;;;;;;4889535;29;20562;-79
2021/12/23 12:49:22;;;;;;;30.30;15.40;;;0.30;96.30;;;;;;4888408;29;20402;-77
2021/12/23 12:51:49;;;;;;;19.27;11.70;;;0.40;96.30;;;;;;4882255;29;20830;-77
2021/12/23 12:54:39;;;;;;;14.13;9.13;;;0.60;96.30;;;;;;4894825;29;20422;-78
2021/12/23 12:57:07;;;;;;;19.50;10.63;;;1.20;96.30;;;;;;4874438;29;20444;-78
2021/12/23 12:59:42;;;;;;;14.73;8.40;;;1.50;96.30;;;;;;4889303;29;20470;-80
2021/12/23 13:02:26;;;;;;;18.90;11.13;;;1.60;96.30;;;;;;4882488;29;20453;-79
2021/12/23 13:04:58;;;;;;;24.53;15.27;;;1.80;96.30;;;;;;4880197;29;20436;-79
2021/12/23 13:07:34;;;;;;;19.10;11.00;;;1.90;96.30;;;;;;4878547;29;20422;-80
2021/12/23 13:10:20;;;;;;;15.93;8.37;;;2.00;96.30;;;;;;4882946;29;20459;-79
2021/12/23 13:12:54;;;;;;;13.33;9.47;;;2.00;96.30;;;;;;4885637;29;20928;-79
2021/12/23 13:15:33;;;;;;;15.97;9.80;;;2.10;96.30;;;;;;4885513;29;20577;-79
2021/12/23 13:18:05;;;;;;;14.10;7.27;;;2.10;96.30;;;;;;4881007;29;20512;-79
2021/12/23 13:20:40;;;;;;;11.77;7.90;;;2.20;96.30;;;;;;4883463;29;20508;-79
2021/12/23 13:23:15;;;;;;;17.53;9.60;;;2.20;96.30;;;;;;4883143;29;20513;-78
2021/12/23 13:25:51;;;;;;;36.77;16.73;;;2.10;96.30;;;;;;4882514;29;20410;-78
2021/12/23 13:28:40;;;;;;;22.97;12.47;;;1.80;96.30;;;;;;4882018;29;20425;-78
2021/12/23 13:31:22;;;;;;;11.37;7.80;;;1.70;96.30;;;;;;4885741;29;20516;-78
2021/12/23 13:34:03;;;;;;;14.00;9.20;;;2.00;96.30;;;;;;4877752;29;20419;-79
2021/12/23 13:36:46;;;;;;;14.73;10.90;;;2.00;96.30;;;;;;4882083;29;20497;-79
2021/12/23 13:39:13;;;;;;;20.47;13.37;;;2.10;96.30;;;;;;4885522;29;20456;-80
2021/12/23 13:41:48;;;;;;;10.73;8.07;;;2.20;96.30;;;;;;4881201;29;20550;-79
2021/12/23 13:44:21;;;;;;;11.90;7.20;;;2.30;96.30;;;;;;4881047;29;20429;-78
2021/12/23 13:47:15;;;;;;;19.27;10.80;;;2.30;96.30;;;;;;4896615;29;20915;-77
2021/12/23 13:49:47;;;;;;;25.63;17.10;;;2.40;96.30;;;;;;4885872;29;20486;-78
2021/12/23 13:52:33;;;;;;;14.30;8.63;;;2.40;96.30;;;;;;4881779;29;20457;-78
2021/12/23 13:55:03;;;;;;;10.87;8.90;;;2.50;96.30;;;;;;4887365;29;20485;-78
2021/12/23 13:57:35;;;;;;;12.70;8.13;;;2.50;96.30;;;;;;4885184;29;20426;-78
2021/12/23 14:00:10;;;;;;;28.27;16.07;;;2.50;96.30;;;;;;4887727;29;20918;-77
2021/12/23 14:02:36;;;;;;;34.37;17.70;;;2.50;96.30;;;;;;4887773;29;20778;-78
2021/12/23 14:05:05;;;;;;;39.10;19.90;;;2.60;96.30;;;;;;4887690;29;20983;-78
2021/12/23 14:07:37;;;;;;;10.40;7.87;;;2.60;96.30;;;;;;4897343;29;20184;-77
2021/12/23 14:10:12;;;;;;;64.63;29.70;;;2.50;96.30;;;;;;4908051;29;20504;-74
2021/12/23 14:17:58;;;;;;;11.27;7.07;;;2.60;96.30;;;;;;5943884;23;20690;-74
2021/12/23 14:23:21;;;;;;;12.47;7.03;;;2.60;96.30;;;;;;4860514;29;20460;-75
2021/12/23 14:26:05;;;;;;;8.07;4.47;;;2.50;96.30;;;;;;4859819;29;20496;-74
2021/12/23 14:28:40;;;;;;;24.87;12.30;;;2.50;96.30;;;;;;4874180;29;20454;-75
2021/12/23 14:31:22;;;;;;;22.70;15.20;;;2.50;96.30;;;;;;4859937;29;20947;-76
2021/12/23 14:33:58;;;;;;;18.53;11.80;;;2.40;96.30;;;;;;4860179;29;20914;-75
2021/12/23 14:36:29;;;;;;;21.00;13.43;;;2.40;96.30;;;;;;4875690;29;20437;-76
2021/12/23 14:39:02;;;;;;;17.10;10.87;;;2.30;96.30;;;;;;4878264;29;20528;-76
2021/12/23 14:41:38;;;;;;;18.37;11.23;;;2.30;96.30;;;;;;4878416;29;20524;-75
2021/12/23 14:44:11;;;;;;;14.77;9.90;;;2.20;96.30;;;;;;4878497;29;20402;-75
2021/12/23 14:46:46;;;;;;;20.63;12.80;;;2.20;96.30;;;;;;4876884;29;20475;-74
2021/12/23 14:49:42;;;;;;;17.60;11.50;;;2.20;96.30;;;;;;4876575;29;20430;-75
2021/12/23 14:52:14;;;;;;;9.87;6.53;;;2.10;96.30;;;;;;4878360;29;20942;-75
2021/12/23 14:54:58;;;;;;;9.10;6.40;;;2.10;96.30;;;;;;4877016;29;20426;-75
2021/12/23 14:57:38;;;;;;;22.87;13.40;;;2.00;96.30;;;;;;4876780;29;20522;-76
2021/12/23 15:00:19;;;;;;;9.67;6.30;;;2.00;96.30;;;;;;4878396;29;20412;-75
2021/12/23 15:02:45;;;;;;;12.60;8.57;;;1.80;96.30;;;;;;4878252;29;20416;-75
2021/12/23 15:05:14;;;;;;;7.83;5.77;;;1.90;96.30;;;;;;4878360;29;20406;-75
2021/12/23 15:07:52;;;;;;;8.00;5.30;;;1.80;96.30;;;;;;4872587;29;20182;-75
2021/12/23 15:10:46;;;;;;;6.50;5.00;;;1.80;96.30;;;;;;4864088;29;20442;-75
2021/12/23 15:13:23;;;;;;;9.43;6.20;;;2.00;96.30;;;;;;4841341;29;20765;-75
2021/12/23 15:16:03;;;;;;;6.17;4.67;;;2.00;96.30;;;;;;4841055;29;20511;-76
2021/12/23 15:19:24;;;;;;;8.90;5.97;;;2.00;96.30;;;;;;4854842;29;20479;-76
2021/12/23 15:21:39;;;;;;;10.33;5.83;;;2.00;96.30;;;;;;4844664;29;20456;-75
2021/12/23 15:24:31;;;;;;;6.23;5.20;;;2.00;96.30;;;;;;4839103;29;20924;-76
2021/12/23 15:26:59;;;;;;;9.17;5.33;;;2.00;96.30;;;;;;4854255;29;20428;-75
2021/12/23 15:29:29;;;;;;;9.60;5.90;;;2.00;96.30;;;;;;4840217;29;20835;-75
2021/12/23 15:31:59;;;;;;;13.50;7.20;;;2.10;96.30;;;;;;4840175;29;20439;-75
2021/12/23 15:34:27;;;;;;;8.37;6.00;;;2.20;96.30;;;;;;4858377;29;20841;-75
2021/12/23 15:36:53;;;;;;;9.87;7.57;;;2.30;96.30;;;;;;4876924;29;20418;-75
2021/12/23 15:39:18;;;;;;;7.80;5.83;;;2.20;96.30;;;;;;4876980;29;20465;-75
2021/12/23 15:41:44;;;;;;;11.73;5.90;;;2.20;96.30;;;;;;4877060;29;20213;-76
2021/12/23 15:44:10;;;;;;;7.40;4.83;;;2.40;96.30;;;;;;4891436;29;20254;-76
2021/12/23 15:46:36;;;;;;;7.80;4.00;;;2.40;96.30;;;;;;4876904;29;20923;-76
2021/12/23 15:49:01;;;;;;;6.87;4.30;;;2.50;96.30;;;;;;4875823;29;20182;-76
2021/12/23 15:51:27;;;;;;;7.83;4.30;;;2.50;96.30;;;;;;4876919;29;20201;-77
2021/12/23 15:53:53;;;;;;;5.70;3.90;;;2.40;96.30;;;;;;4891171;29;20328;-76
2021/12/23 15:56:18;;;;;;;6.70;4.67;;;2.30;96.30;;;;;;4876749;29;20470;-76
2021/12/23 15:58:45;;;;;;;7.90;4.27;;;2.30;96.30;;;;;;4875571;29;20213;-75
2021/12/23 16:01:11;;;;;;;8.33;4.30;;;2.20;96.30;;;;;;4891517;29;20687;-77
2021/12/23 16:03:39;;;;;;;5.93;4.53;;;2.10;96.30;;;;;;4878968;29;20512;-76
2021/12/23 16:08:49;;;;;;;7.07;5.10;;;2.00;96.30;;;;;;4880024;29;20477;-75
2021/12/23 16:11:15;;;;;;;6.90;5.20;;;1.90;96.30;;;;;;4879895;29;20474;-75
2021/12/23 16:13:40;;;;;;;9.27;5.03;;;1.90;96.30;;;;;;4878710;29;20518;-75
2021/12/23 16:16:05;;;;;;;8.00;5.50;;;1.80;96.30;;;;;;4879769;29;20181;-75
2021/12/23 16:18:31;;;;;;;7.20;4.60;;;1.80;96.30;;;;;;4846912;29;984065;-76
2021/12/23 16:20:56;;;;;;;6.80;5.80;;;1.80;96.30;;;;;;4880792;29;20677;-75
2021/12/23 16:23:22;;;;;;;7.53;6.10;;;1.80;96.30;;;;;;4880803;29;20178;-76
2021/12/23 16:25:47;;;;;;;17.10;10.23;;;1.80;96.30;;;;;;4879329;29;20553;-76
2021/12/23 16:28:13;;;;;;;8.07;5.63;;;1.90;96.30;;;;;;4880792;29;20238;-75
2021/12/23 16:30:39;;;;;;;6.40;4.50;;;1.80;96.30;;;;;;4879399;29;20201;-76
2021/12/23 16:33:10;;;;;;;7.50;5.27;;;1.80;96.30;;;;;;4879468;29;20418;-76
2021/12/23 16:35:41;;;;;;;7.43;6.20;;;1.80;96.30;;;;;;4880633;29;20622;-76
2021/12/23 16:38:08;;;;;;;8.07;6.40;;;1.80;96.30;;;;;;4879243;29;20458;-76
2021/12/23 16:40:37;;;;;;;8.07;5.53;;;1.90;96.30;;;;;;4879146;29;20465;-76
2021/12/23 16:43:04;;;;;;;7.60;5.27;;;2.00;96.30;;;;;;4880452;29;20429;-76
2021/12/23 16:45:30;;;;;;;7.53;5.60;;;1.90;96.30;;;;;;4879312;29;20418;-75
2021/12/23 16:47:56;;;;;;;10.07;5.23;;;1.90;96.30;;;;;;4874545;29;20431;-76
2021/12/23 16:50:22;;;;;;;8.73;5.40;;;1.90;96.30;;;;;;4861729;29;20425;-75
2021/12/23 16:52:51;;;;;;;8.73;5.60;;;1.90;96.30;;;;;;4844553;29;21176;-76
2021/12/23 16:58:05;;;;;;;9.53;7.20;;;2.00;96.30;;;;;;4848289;29;20468;-76
2021/12/23 17:00:30;;;;;;;9.40;6.57;;;2.10;96.30;;;;;;4868455;29;20423;-76
2021/12/23 17:02:56;;;;;;;12.40;5.73;;;2.10;96.30;;;;;;4852270;29;20492;-75
2021/12/23 17:05:26;;;;;;;11.23;7.30;;;2.00;96.30;;;;;;4859323;29;20178;-75
2021/12/23 17:07:52;;;;;;;10.23;6.07;;;2.10;96.30;;;;;;4860417;29;20411;-76
2021/12/23 17:10:21;;;;;;;9.70;6.10;;;2.20;96.30;;;;;;4852480;29;20772;-76
2021/12/23 17:12:47;;;;;;;8.53;5.83;;;2.20;96.30;;;;;;4848790;29;20675;-76
2021/12/23 17:15:13;;;;;;;8.03;5.70;;;2.20;96.30;;;;;;4848893;29;20519;-75
2021/12/23 17:17:39;;;;;;;12.13;5.07;;;2.20;96.30;;;;;;4856973;29;20522;-75
2021/12/23 17:20:16;;;;;;;11.17;6.10;;;2.20;96.30;;;;;;4852751;29;20190;-76
2021/12/23 17:22:43;;;;;;;9.20;5.80;;;2.20;96.30;;;;;;4860767;29;20261;-76
2021/12/23 17:25:08;;;;;;;8.47;6.50;;;2.10;96.30;;;;;;4861172;29;20906;-75
2021/12/23 17:27:34;;;;;;;13.77;6.83;;;2.20;96.30;;;;;;4859593;29;20415;-75
2021/12/23 17:30:00;;;;;;;10.07;5.50;;;2.30;96.30;;;;;;4853141;29;20175;-76
2021/12/23 17:32:26;;;;;;;11.37;6.90;;;2.40;96.30;;;;;;4859863;29;20202;-76
2021/12/23 17:34:53;;;;;;;8.30;5.50;;;2.30;96.30;;;;;;4860701;29;20465;-77
2021/12/23 17:37:19;;;;;;;9.97;6.63;;;2.30;96.30;;;;;;4878314;29;20204;-75
2021/12/23 17:39:45;;;;;;;9.93;6.60;;;2.40;96.30;;;;;;4879227;29;20497;-75
2021/12/23 17:42:11;;;;;;;9.70;6.37;;;2.40;96.30;;;;;;4879556;29;20430;-75
2021/12/23 17:44:38;;;;;;;10.73;7.40;;;2.40;96.30;;;;;;4879615;29;20208;-76
2021/12/23 17:47:05;;;;;;;11.87;9.30;;;2.40;96.30;;;;;;4874894;29;20414;-77
2021/12/23 17:49:31;;;;;;;11.30;7.27;;;2.30;96.30;;;;;;4859629;29;20483;-77
2021/12/23 17:51:56;;;;;;;9.80;6.10;;;2.50;96.30;;;;;;4860530;29;20443;-77
2021/12/23 17:54:23;;;;;;;11.30;7.00;;;2.40;96.30;;;;;;4860606;29;20230;-77
2021/12/23 17:56:49;;;;;;;8.67;6.30;;;2.40;96.30;;;;;;4860219;29;20245;-77
2021/12/23 17:59:14;;;;;;;12.03;6.77;;;2.40;96.30;;;;;;4860433;29;20541;-77
2021/12/23 18:01:40;;;;;;;10.70;7.20;;;2.40;96.30;;;;;;4860491;29;20198;-77
2021/12/23 18:04:07;;;;;;;12.90;8.07;;;2.50;96.30;;;;;;4855475;29;20182;-77
2021/12/23 18:06:38;;;;;;;9.50;7.00;;;2.60;96.30;;;;;;4846521;29;20592;-77
2021/12/23 18:09:08;;;;;;;10.53;6.70;;;2.60;96.30;;;;;;4873773;29;20429;-77
2021/12/23 18:11:35;;;;;;;9.10;5.87;;;2.60;96.30;;;;;;4860910;29;20463;-77
2021/12/23 18:14:01;;;;;;;13.27;8.70;;;2.60;96.30;;;;;;4858002;29;20443;-77
2021/12/23 18:16:27;;;;;;;12.80;7.73;;;2.60;96.30;;;;;;4842017;29;20432;-76
2021/12/23 18:18:54;;;;;;;14.33;7.90;;;2.70;96.30;;;;;;4839555;29;20530;-76
2021/12/23 18:21:23;;;;;;;16.30;7.30;;;2.80;96.30;;;;;;4841519;29;20187;-76
2021/12/23 18:23:48;;;;;;;8.20;6.30;;;2.80;96.30;;;;;;4850586;29;20431;-79
2021/12/23 18:26:14;;;;;;;17.43;10.00;;;2.80;96.30;;;;;;4862571;29;20432;-78
2021/12/23 18:28:39;;;;;;;17.10;10.77;;;2.80;96.30;;;;;;4864054;29;20193;-77
2021/12/23 18:31:05;;;;;;;15.03;8.30;;;2.80;96.30;;;;;;4860734;29;20682;-78
2021/12/23 18:33:31;;;;;;;9.70;7.57;;;2.80;96.30;;;;;;4865901;29;20197;-78
2021/12/23 18:36:06;;;;;;;17.37;7.50;;;2.70;96.30;;;;;;4868021;29;20455;-78
2021/12/23 18:38:36;;;;;;;13.50;7.80;;;2.70;96.30;;;;;;4864935;29;20193;-75
2021/12/23 18:41:03;;;;;;;12.50;8.70;;;2.80;96.30;;;;;;4866087;29;20435;-76
2021/12/23 18:43:30;;;;;;;20.10;13.00;;;2.80;96.30;;;;;;4864718;29;20414;-77
2021/12/23 18:45:58;;;;;;;21.30;9.30;;;2.70;96.30;;;;;;4866272;29;20458;-78
2021/12/23 18:48:24;;;;;;;15.20;8.90;;;2.70;96.30;;;;;;4865842;29;20430;-76
2021/12/23 18:50:50;;;;;;;17.03;8.00;;;2.80;96.30;;;;;;4866486;29;20533;-78
2021/12/23 18:53:16;;;;;;;14.50;9.17;;;2.80;96.30;;;;;;4864899;29;20453;-78
2021/12/23 18:55:42;;;;;;;16.00;8.50;;;2.90;96.30;;;;;;4865539;29;20811;-77
2021/12/23 18:58:08;;;;;;;10.30;7.27;;;2.90;96.30;;;;;;4864412;29;20506;-78
2021/12/23 19:00:45;;;;;;;9.50;6.57;;;3.10;96.30;;;;;;4862520;29;20178;-78
2021/12/23 19:03:27;;;;;;;7.87;4.90;;;3.30;96.30;;;;;;4864460;29;20184;-78
2021/12/23 19:06:06;;;;;;;10.30;6.30;;;3.30;96.30;;;;;;4862297;29;20415;-76
2021/12/23 19:08:34;;;;;;;13.40;6.63;;;3.30;96.30;;;;;;4866982;29;20439;-76
2021/12/23 19:11:02;;;;;;;6.50;5.20;;;3.30;96.30;;;;;;4864305;29;20452;-76
2021/12/23 19:13:27;;;;;;;10.97;6.33;;;3.50;96.30;;;;;;4864246;29;20423;-75
2021/12/23 19:15:53;;;;;;;9.80;5.70;;;3.50;96.30;;;;;;4866854;29;20494;-77
2021/12/23 19:18:19;;;;;;;9.50;5.37;;;3.50;96.30;;;;;;4864839;29;20295;-77
2021/12/23 19:20:44;;;;;;;8.47;5.50;;;3.50;96.30;;;;;;4865845;29;20201;-77
2021/12/23 19:23:10;;;;;;;8.10;5.30;;;3.50;96.30;;;;;;4862831;29;20178;-76
2021/12/23 19:25:35;;;;;;;8.10;5.20;;;3.50;96.30;;;;;;4866626;29;20278;-75
2021/12/23 19:28:02;;;;;;;8.10;6.07;;;3.60;96.30;;;;;;4863101;29;20250;-77
2021/12/23 19:30:28;;;;;;;9.40;6.10;;;3.60;96.30;;;;;;4866141;29;20249;-78